createdAt,value
2018-07-01T00:00:21.612Z,39.00
2018-07-01T00:02:50.271Z,39.20
2018-07-01T00:05:18.830Z,39.20
2018-07-01T00:07:47.922Z,39.00
2018-07-01T00:10:16.854Z,38.60
2018-07-01T00:12:45.772Z,38.90
2018-07-01T00:15:14.387Z,38.80
2018-07-01T00:17:43.299Z,38.40
2018-07-01T00:20:12.230Z,38.70
2018-07-01T00:22:40.919Z,38.60
2018-07-01T00:25:09.774Z,38.60
2018-07-01T00:27:38.724Z,38.70
2018-07-01T00:30:07.619Z,38.40
2018-07-01T00:32:36.195Z,38.40
2018-07-01T00:37:33.551Z,38.40
2018-07-01T00:42:30.507Z,38.30
2018-07-01T00:44:59.152Z,38.50
2018-07-01T00:47:27.755Z,38.20
2018-07-01T00:49:56.382Z,38.30
2018-07-01T00:52:25.059Z,38.10
2018-07-01T00:54:53.699Z,38.70
2018-07-01T00:57:22.291Z,38.80
2018-07-01T00:59:50.871Z,38.70
2018-07-01T01:02:19.564Z,38.50
2018-07-01T01:04:48.100Z,39.00
2018-07-01T01:07:16.697Z,38.70
2018-07-01T01:09:45.297Z,38.50
2018-07-01T01:12:13.927Z,38.60
2018-07-01T01:14:42.491Z,38.90
2018-07-01T01:17:11.021Z,38.70
2018-07-01T01:19:39.706Z,39.10
2018-07-01T01:22:08.347Z,39.20
2018-07-01T01:24:37.004Z,39.30
2018-07-01T01:27:05.590Z,39.50
2018-07-01T01:29:34.227Z,39.60
2018-07-01T01:32:03.337Z,39.70
2018-07-01T01:34:31.957Z,39.90
2018-07-01T01:37:01.057Z,39.70
2018-07-01T01:39:32.460Z,39.90
2018-07-01T01:42:06.295Z,39.80
2018-07-01T01:45:05.339Z,39.00
2018-07-01T01:47:40.600Z,39.90
2018-07-01T01:51:14.826Z,40.00
2018-07-01T01:53:56.138Z,40.30
2018-07-01T01:56:33.016Z,40.40
2018-07-01T01:59:05.272Z,40.90
2018-07-01T02:03:41.963Z,41.40
2018-07-01T02:06:17.134Z,40.30
2018-07-01T02:08:53.762Z,41.00
2018-07-01T02:11:22.816Z,41.00
2018-07-01T02:13:53.966Z,42.10
2018-07-01T02:16:30.744Z,41.30
2018-07-01T02:18:59.807Z,41.30
2018-07-01T02:21:28.503Z,41.40
2018-07-01T02:24:00.415Z,41.60
2018-07-01T02:26:31.280Z,41.30
2018-07-01T02:29:00.298Z,41.40
2018-07-01T02:31:28.815Z,41.20
2018-07-01T02:33:57.381Z,41.50
2018-07-01T02:36:26.292Z,41.50
2018-07-01T02:38:54.981Z,42.00
2018-07-01T02:41:24.296Z,41.70
2018-07-01T02:43:52.903Z,41.90
2018-07-01T02:46:21.464Z,42.00
2018-07-01T02:48:50.128Z,42.10
2018-07-01T02:51:18.653Z,42.10
2018-07-01T02:53:47.365Z,42.20
2018-07-01T02:56:15.866Z,42.00
2018-07-01T02:58:44.509Z,42.20
2018-07-01T03:01:13.140Z,42.30
2018-07-01T03:03:41.820Z,42.30
2018-07-01T03:06:10.419Z,42.70
2018-07-01T03:08:38.936Z,42.70
2018-07-01T03:11:07.631Z,42.70
2018-07-01T03:13:36.280Z,42.50
2018-07-01T03:16:04.971Z,42.60
2018-07-01T03:18:33.499Z,42.80
2018-07-01T03:21:02.165Z,42.90
2018-07-01T03:23:30.739Z,43.10
2018-07-01T03:25:59.954Z,42.50
2018-07-01T03:28:28.533Z,42.50
2018-07-01T03:30:57.337Z,43.20
2018-07-01T03:33:26.728Z,43.00
2018-07-01T03:35:55.813Z,43.40
2018-07-01T03:38:24.443Z,42.90
2018-07-01T03:40:53.059Z,43.20
2018-07-01T03:43:22.055Z,43.50
2018-07-01T03:45:50.943Z,43.30
2018-07-01T03:50:48.660Z,43.70
2018-07-01T03:53:17.424Z,43.80
2018-07-01T03:55:46.086Z,43.40
2018-07-01T03:58:15.010Z,43.20
2018-07-01T04:00:43.915Z,43.40
2018-07-01T04:03:12.604Z,43.20
2018-07-01T04:05:41.180Z,43.80
2018-07-01T04:08:10.399Z,43.70
2018-07-01T04:10:39.043Z,43.70
2018-07-01T04:13:07.779Z,43.90
2018-07-01T04:15:36.306Z,44.00
2018-07-01T04:18:05.335Z,43.80
2018-07-01T04:20:34.026Z,43.90
2018-07-01T04:23:03.113Z,44.10
2018-07-01T04:25:31.703Z,43.50
2018-07-01T04:28:00.291Z,44.10
2018-07-01T04:30:29.080Z,44.00
2018-07-01T04:32:57.767Z,43.80
2018-07-01T04:35:26.846Z,43.90
2018-07-01T04:37:55.652Z,43.90
2018-07-01T04:40:24.533Z,43.10
2018-07-01T04:42:53.130Z,43.80
2018-07-01T04:45:22.183Z,43.80
2018-07-01T04:47:51.187Z,43.80
2018-07-01T04:50:20.208Z,43.60
2018-07-01T04:52:49.464Z,43.50
2018-07-01T04:57:46.432Z,43.50
2018-07-01T05:00:15.176Z,43.30
2018-07-01T05:02:43.821Z,43.10
2018-07-01T05:05:13.203Z,43.30
2018-07-01T05:07:41.873Z,43.40
2018-07-01T05:10:10.495Z,43.30
2018-07-01T05:12:39.122Z,43.20
2018-07-01T05:15:07.764Z,42.90
2018-07-01T05:17:36.431Z,43.10
2018-07-01T05:20:05.015Z,43.00
2018-07-01T05:22:33.669Z,42.80
2018-07-01T05:25:02.743Z,43.20
2018-07-01T05:27:31.342Z,43.10
2018-07-01T05:29:59.879Z,43.00
2018-07-01T05:32:29.072Z,42.70
2018-07-01T05:34:57.696Z,42.80
2018-07-01T05:37:26.354Z,42.70
2018-07-01T05:39:55.058Z,42.50
2018-07-01T05:42:23.710Z,42.20
2018-07-01T05:44:52.297Z,42.50
2018-07-01T05:47:21.038Z,42.30
2018-07-01T05:49:49.611Z,42.40
2018-07-01T05:52:19.367Z,42.50
2018-07-01T05:54:48.110Z,42.20
2018-07-01T05:57:16.903Z,41.90
2018-07-01T05:59:45.902Z,42.00
2018-07-01T06:02:14.836Z,41.90
2018-07-01T06:04:43.441Z,42.00
2018-07-01T06:07:12.130Z,41.80
2018-07-01T06:09:40.746Z,41.70
2018-07-01T06:12:09.371Z,41.70
2018-07-01T06:14:38.052Z,41.70
2018-07-01T06:17:06.819Z,41.30
2018-07-01T06:19:35.440Z,40.90
2018-07-01T06:22:04.122Z,40.50
2018-07-01T06:24:32.881Z,41.00
2018-07-01T06:27:01.455Z,40.90
2018-07-01T06:29:30.458Z,40.90
2018-07-01T06:31:59.030Z,40.20
2018-07-01T06:34:27.635Z,40.50
2018-07-01T06:36:56.628Z,40.30
2018-07-01T06:39:25.420Z,40.60
2018-07-01T06:44:22.574Z,40.30
2018-07-01T06:46:51.226Z,40.20
2018-07-01T06:49:20.401Z,40.30
2018-07-01T06:51:49.000Z,39.60
2018-07-01T06:54:17.719Z,39.40
2018-07-01T06:56:46.535Z,39.10
2018-07-01T07:01:43.845Z,38.20
2018-07-01T07:04:12.734Z,37.70
2018-07-01T07:06:41.701Z,37.60
2018-07-01T07:09:12.185Z,37.10
2018-07-01T07:11:41.403Z,36.70
2018-07-01T07:14:10.170Z,36.70
2018-07-01T07:16:38.871Z,36.00
2018-07-01T07:19:08.108Z,35.70
2018-07-01T07:21:36.828Z,36.00
2018-07-01T07:24:05.530Z,35.80
2018-07-01T07:26:34.213Z,35.50
2018-07-01T07:29:02.902Z,35.00
2018-07-01T07:31:31.563Z,34.50
2018-07-01T07:34:00.292Z,35.20
2018-07-01T07:36:28.875Z,35.00
2018-07-01T07:38:57.463Z,34.40
2018-07-01T07:41:26.333Z,34.50
2018-07-01T07:43:55.033Z,35.00
2018-07-01T07:46:23.728Z,34.70
2018-07-01T07:48:52.536Z,34.60
2018-07-01T07:51:21.240Z,34.10
2018-07-01T07:53:50.016Z,33.90
2018-07-01T07:56:18.782Z,34.10
2018-07-01T07:58:47.495Z,34.50
2018-07-01T08:01:16.452Z,34.20
2018-07-01T08:03:45.405Z,34.20
2018-07-01T08:06:14.041Z,33.80
2018-07-01T08:08:43.090Z,33.80
2018-07-01T08:11:11.670Z,35.00
2018-07-01T08:13:40.358Z,34.50
2018-07-01T08:16:09.152Z,33.60
2018-07-01T08:18:38.216Z,33.60
2018-07-01T08:21:07.412Z,33.70
2018-07-01T08:23:36.054Z,33.70
2018-07-01T08:26:04.986Z,33.70
2018-07-01T08:28:33.685Z,33.20
2018-07-01T08:31:02.519Z,33.40
2018-07-01T08:33:31.147Z,33.50
2018-07-01T08:40:56.702Z,33.80
2018-07-01T08:43:25.356Z,33.60
2018-07-01T08:45:54.089Z,33.60
2018-07-01T08:48:22.847Z,33.90
2018-07-01T08:50:51.506Z,33.10
2018-07-01T08:53:20.319Z,33.70
2018-07-01T08:56:03.961Z,33.40
2018-07-01T08:58:33.588Z,33.80
2018-07-01T09:01:02.140Z,34.40
2018-07-01T09:03:30.976Z,34.40
2018-07-01T09:05:59.613Z,33.30
2018-07-01T09:08:28.425Z,33.60
2018-07-01T09:10:57.091Z,33.20
2018-07-01T09:15:54.197Z,33.80
2018-07-01T09:18:22.843Z,33.20
2018-07-01T09:23:19.702Z,33.80
2018-07-01T09:25:48.301Z,33.40
2018-07-01T09:33:13.487Z,33.80
2018-07-01T09:35:42.919Z,33.70
2018-07-01T09:38:11.499Z,34.00
2018-07-01T09:40:40.291Z,33.60
2018-07-01T09:43:09.226Z,33.20
2018-07-01T09:45:37.870Z,33.80
2018-07-01T09:48:06.936Z,34.80
2018-07-01T09:50:35.694Z,33.90
2018-07-01T09:53:04.296Z,34.00
2018-07-01T09:55:32.944Z,33.80
2018-07-01T09:58:01.516Z,33.10
2018-07-01T10:02:58.754Z,34.10
2018-07-01T10:05:27.487Z,34.00
2018-07-01T10:07:56.171Z,33.80
2018-07-01T10:10:24.965Z,33.60
2018-07-01T10:12:53.701Z,33.20
2018-07-01T10:15:22.406Z,34.10
2018-07-01T10:17:51.152Z,33.10
2018-07-01T10:20:20.261Z,33.20
2018-07-01T10:22:49.357Z,33.10
2018-07-01T10:25:18.058Z,33.60
2018-07-01T10:27:46.842Z,33.30
2018-07-01T10:30:15.536Z,32.90
2018-07-01T10:32:44.136Z,32.90
2018-07-01T10:35:13.091Z,33.20
2018-07-01T10:37:41.714Z,33.10
2018-07-01T10:40:10.337Z,33.70
2018-07-01T10:42:39.052Z,33.10
2018-07-01T10:45:07.701Z,33.50
2018-07-01T10:47:36.371Z,33.40
2018-07-01T10:50:05.668Z,33.90
2018-07-01T10:52:34.370Z,33.20
2018-07-01T10:55:03.548Z,33.50
2018-07-01T10:57:32.460Z,33.60
2018-07-01T11:00:01.124Z,33.00
2018-07-01T11:04:57.965Z,33.30
2018-07-01T11:07:26.532Z,32.60
2018-07-01T11:09:55.149Z,33.50
2018-07-01T11:12:23.789Z,33.00
2018-07-01T11:14:52.448Z,31.90
2018-07-01T11:17:21.144Z,32.60
2018-07-01T11:19:49.862Z,33.30
2018-07-01T11:22:18.746Z,33.30
2018-07-01T11:24:47.802Z,33.20
2018-07-01T11:27:16.402Z,32.90
2018-07-01T11:29:45.232Z,32.50
2018-07-01T11:32:13.829Z,32.50
2018-07-01T11:34:42.941Z,32.30
2018-07-01T11:37:11.701Z,33.00
2018-07-01T11:39:40.798Z,32.80
2018-07-01T11:42:09.411Z,32.10
2018-07-01T11:47:06.378Z,32.80
2018-07-01T11:49:34.984Z,32.90
2018-07-01T11:52:03.804Z,33.20
2018-07-01T11:54:32.819Z,33.50
2018-07-01T11:57:01.808Z,33.70
2018-07-01T11:59:30.487Z,33.20
2018-07-01T12:01:59.629Z,33.90
2018-07-01T12:04:28.179Z,33.70
2018-07-01T12:06:56.827Z,34.60
2018-07-01T12:09:25.409Z,34.60
2018-07-01T12:11:54.378Z,34.00
2018-07-01T12:14:23.090Z,33.60
2018-07-01T12:16:51.847Z,33.40
2018-07-01T12:19:21.896Z,33.40
2018-07-01T12:21:50.994Z,33.00
2018-07-01T12:24:19.696Z,33.30
2018-07-01T12:26:48.480Z,33.60
2018-07-01T12:29:17.170Z,33.50
2018-07-01T12:31:46.800Z,33.20
2018-07-01T12:34:15.515Z,32.20
2018-07-01T12:36:44.581Z,31.80
2018-07-01T12:39:13.539Z,32.30
2018-07-01T12:41:42.124Z,33.10
2018-07-01T12:44:11.082Z,32.50
2018-07-01T12:46:39.739Z,33.00
2018-07-01T12:49:08.383Z,32.20
2018-07-01T12:51:37.703Z,32.40
2018-07-01T12:54:06.372Z,32.90
2018-07-01T12:56:35.125Z,32.80
2018-07-01T12:59:03.769Z,32.40
2018-07-01T13:01:32.413Z,33.10
2018-07-01T13:04:01.103Z,32.50
2018-07-01T13:06:30.166Z,32.60
2018-07-01T13:08:59.468Z,31.90
2018-07-01T13:11:28.069Z,32.00
2018-07-01T13:13:56.706Z,32.20
2018-07-01T13:16:25.441Z,31.50
2018-07-01T13:18:54.060Z,32.30
2018-07-01T13:21:22.812Z,32.10
2018-07-01T13:23:51.454Z,32.30
2018-07-01T13:26:20.747Z,32.80
2018-07-01T13:28:49.422Z,32.10
2018-07-01T13:31:17.971Z,32.30
2018-07-01T13:33:46.556Z,31.60
2018-07-01T13:36:15.176Z,31.40
2018-07-01T13:38:44.150Z,31.90
2018-07-01T13:41:12.767Z,31.90
2018-07-01T13:43:41.428Z,31.20
2018-07-01T13:46:10.044Z,31.10
2018-07-01T13:48:39.211Z,30.80
2018-07-01T13:51:07.834Z,31.30
2018-07-01T13:53:36.507Z,30.80
2018-07-01T13:56:05.621Z,31.00
2018-07-01T13:58:35.136Z,31.50
2018-07-01T14:01:04.070Z,30.70
2018-07-01T14:03:32.761Z,30.30
2018-07-01T14:06:01.693Z,31.20
2018-07-01T14:08:30.361Z,30.90
2018-07-01T14:10:58.920Z,31.40
2018-07-01T14:13:27.584Z,30.80
2018-07-01T14:15:56.627Z,31.10
2018-07-01T14:18:25.233Z,31.20
2018-07-01T14:20:53.925Z,30.40
2018-07-01T14:23:22.810Z,30.80
2018-07-01T14:25:51.705Z,30.70
2018-07-01T14:28:20.295Z,29.90
2018-07-01T14:33:17.233Z,30.50
2018-07-01T14:35:45.870Z,30.80
2018-07-01T14:38:14.450Z,30.20
2018-07-01T14:40:43.000Z,29.90
2018-07-01T14:43:12.151Z,30.10
2018-07-01T14:45:40.765Z,29.70
2018-07-01T14:48:09.833Z,29.80
2018-07-01T14:50:38.432Z,30.30
2018-07-01T14:53:07.413Z,30.30
2018-07-01T14:55:36.079Z,30.20
2018-07-01T14:58:04.740Z,30.00
2018-07-01T15:00:33.491Z,30.00
2018-07-01T15:03:03.695Z,30.00
2018-07-01T15:05:32.338Z,30.00
2018-07-01T15:08:01.012Z,30.70
2018-07-01T15:10:29.789Z,30.50
2018-07-01T15:12:59.380Z,30.00
2018-07-01T15:15:28.607Z,30.00
2018-07-01T15:17:57.337Z,29.40
2018-07-01T15:20:25.928Z,29.40
2018-07-01T15:22:55.051Z,29.30
2018-07-01T15:25:23.725Z,29.60
2018-07-01T15:27:52.822Z,29.40
2018-07-01T15:30:21.607Z,30.00
2018-07-01T15:32:50.292Z,29.90
2018-07-01T15:35:18.923Z,29.90
2018-07-01T15:37:47.620Z,29.70
2018-07-01T15:40:16.287Z,30.00
2018-07-01T15:42:45.142Z,29.70
2018-07-01T15:45:13.827Z,29.00
2018-07-01T15:47:42.395Z,29.00
2018-07-01T15:50:10.991Z,28.80
2018-07-01T15:52:39.887Z,29.10
2018-07-01T15:55:14.341Z,29.00
2018-07-01T15:57:43.043Z,29.70
2018-07-01T16:00:11.884Z,29.90
2018-07-01T16:02:40.810Z,29.80
2018-07-01T16:05:10.063Z,29.30
2018-07-01T16:07:38.723Z,29.70
2018-07-01T16:10:07.670Z,29.70
2018-07-01T16:12:36.348Z,29.70
2018-07-01T16:15:05.268Z,29.60
2018-07-01T16:17:33.855Z,29.30
2018-07-01T16:22:30.685Z,29.00
2018-07-01T16:25:04.692Z,29.40
2018-07-01T16:27:33.358Z,29.50
2018-07-01T16:30:05.934Z,29.20
2018-07-01T16:32:35.862Z,29.10
2018-07-01T16:35:04.811Z,29.10
2018-07-01T16:37:34.217Z,29.20
2018-07-01T16:40:02.871Z,29.10
2018-07-01T16:42:31.404Z,28.80
2018-07-01T16:44:59.964Z,28.40
2018-07-01T16:47:29.247Z,28.40
2018-07-01T16:49:58.250Z,28.60
2018-07-01T16:52:27.211Z,28.50
2018-07-01T16:54:55.766Z,28.60
2018-07-01T16:57:24.320Z,28.80
2018-07-01T16:59:52.920Z,28.10
2018-07-01T17:02:21.704Z,28.60
2018-07-01T17:04:50.202Z,29.20
2018-07-01T17:07:19.469Z,28.80
2018-07-01T17:09:48.058Z,28.50
2018-07-01T17:12:17.024Z,29.00
2018-07-01T17:14:45.837Z,28.80
2018-07-01T17:17:15.246Z,28.50
2018-07-01T17:19:44.159Z,29.10
2018-07-01T17:22:13.171Z,29.40
2018-07-01T17:24:41.804Z,29.50
2018-07-01T17:27:11.014Z,29.60
2018-07-01T17:29:40.246Z,30.00
2018-07-01T17:32:14.155Z,30.50
2018-07-01T17:34:43.681Z,30.20
2018-07-01T17:37:12.854Z,30.20
2018-07-01T17:39:41.536Z,30.70
2018-07-01T17:42:10.119Z,31.20
2018-07-01T17:44:38.923Z,31.50
2018-07-01T17:47:07.539Z,31.80
2018-07-01T17:49:36.199Z,32.20
2018-07-01T17:52:04.819Z,32.20
2018-07-01T17:57:03.216Z,33.00
2018-07-01T17:59:32.148Z,33.10
2018-07-01T18:02:01.327Z,33.10
2018-07-01T18:04:29.952Z,33.20
2018-07-01T18:06:59.091Z,33.40
2018-07-01T18:09:28.069Z,33.20
2018-07-01T18:11:57.602Z,33.70
2018-07-01T18:14:26.898Z,34.10
2018-07-01T18:16:55.543Z,33.90
2018-07-01T18:19:24.118Z,33.80
2018-07-01T18:22:18.302Z,34.20
2018-07-01T18:24:48.925Z,33.80
2018-07-01T18:26:50.264Z,34.40
2018-07-01T18:29:20.102Z,34.10
2018-07-01T18:31:47.765Z,34.00
2018-07-01T18:34:16.699Z,34.30
2018-07-01T18:36:45.852Z,34.20
2018-07-01T18:39:14.487Z,34.40
2018-07-01T18:41:43.203Z,34.40
2018-07-01T18:44:12.161Z,34.70
2018-07-01T18:46:40.924Z,34.90
2018-07-01T18:49:09.815Z,34.70
2018-07-01T18:51:38.499Z,34.70
2018-07-01T18:54:07.238Z,34.40
2018-07-01T18:56:36.026Z,34.80
2018-07-01T18:59:04.745Z,34.80
2018-07-01T19:01:33.329Z,34.90
2018-07-01T19:04:01.916Z,35.10
2018-07-01T19:06:30.541Z,35.30
2018-07-01T19:08:59.425Z,35.60
2018-07-01T19:11:28.019Z,35.50
2018-07-01T19:13:56.628Z,35.70
2018-07-01T19:16:25.227Z,35.60
2018-07-01T19:18:53.794Z,35.80
2018-07-01T19:21:22.457Z,35.90
2018-07-01T19:26:19.265Z,36.20
2018-07-01T19:28:47.859Z,36.20
2018-07-01T19:31:16.377Z,36.40
2018-07-01T19:33:44.958Z,36.30
2018-07-01T19:36:13.604Z,36.50
2018-07-01T19:38:42.235Z,36.80
2018-07-01T19:41:11.075Z,36.90
2018-07-01T19:43:39.935Z,36.70
2018-07-01T19:46:08.576Z,36.70
2018-07-01T19:48:37.946Z,36.90
2018-07-01T19:51:06.683Z,36.70
2018-07-01T19:53:35.222Z,36.90
2018-07-01T19:56:03.967Z,37.00
2018-07-01T19:58:32.595Z,37.00
2018-07-01T20:01:01.198Z,36.90
2018-07-01T20:03:29.899Z,36.90
2018-07-01T20:05:58.566Z,36.70
2018-07-01T20:08:27.550Z,36.30
2018-07-01T20:10:56.282Z,36.40
2018-07-01T20:13:24.904Z,36.40
2018-07-01T20:15:53.573Z,36.30
2018-07-01T20:18:22.283Z,36.70
2018-07-01T20:20:50.953Z,36.80
2018-07-01T20:23:19.491Z,37.10
2018-07-01T20:25:48.633Z,37.10
2018-07-01T20:28:17.172Z,37.40
2018-07-01T20:30:45.716Z,37.20
2018-07-01T20:33:14.408Z,37.50
2018-07-01T20:35:43.029Z,37.70
2018-07-01T20:40:40.037Z,38.00
2018-07-01T20:43:08.656Z,38.10
2018-07-01T20:45:37.369Z,37.90
2018-07-01T20:48:06.055Z,38.00
2018-07-01T20:50:35.289Z,38.20
2018-07-01T20:53:04.401Z,38.10
2018-07-01T20:55:33.648Z,38.20
2018-07-01T20:58:02.243Z,38.30
2018-07-01T21:00:30.853Z,38.10
2018-07-01T21:02:59.913Z,38.20
2018-07-01T21:05:28.505Z,38.70
2018-07-01T21:07:57.387Z,38.80
2018-07-01T21:10:26.070Z,39.10
2018-07-01T21:12:54.947Z,39.60
2018-07-01T21:15:23.512Z,40.00
2018-07-01T21:17:52.115Z,40.00
2018-07-01T21:20:20.772Z,39.90
2018-07-01T21:22:49.350Z,40.40
2018-07-01T21:25:17.940Z,40.70
2018-07-01T21:27:46.531Z,40.90
2018-07-01T21:30:15.976Z,40.50
2018-07-01T21:32:44.761Z,40.50
2018-07-01T21:35:13.403Z,40.60
2018-07-01T21:37:42.436Z,40.30
2018-07-01T21:40:11.291Z,40.50
2018-07-01T21:42:39.910Z,40.90
2018-07-01T21:45:09.357Z,41.00
2018-07-01T21:47:38.185Z,40.80
2018-07-01T21:50:07.199Z,40.70
2018-07-01T21:52:36.103Z,41.00
2018-07-01T21:55:04.790Z,40.40
2018-07-01T21:57:33.481Z,40.60
2018-07-01T22:00:02.295Z,40.40
2018-07-01T22:02:31.862Z,40.20
2018-07-01T22:05:00.950Z,40.20
2018-07-01T22:07:29.819Z,40.80
2018-07-01T22:09:58.464Z,41.20
2018-07-01T22:12:38.211Z,41.80
2018-07-01T22:15:22.396Z,42.40
2018-07-01T22:20:19.648Z,41.90
2018-07-01T22:22:48.616Z,41.90
2018-07-01T22:25:17.191Z,41.70
2018-07-01T22:27:45.984Z,42.10
2018-07-01T22:30:14.715Z,42.00
2018-07-01T22:32:43.359Z,41.70
2018-07-01T22:35:12.129Z,41.20
2018-07-01T22:37:41.392Z,40.90
2018-07-01T22:40:10.324Z,40.90
2018-07-01T22:42:39.487Z,41.00
2018-07-01T22:47:36.414Z,41.60
2018-07-01T22:50:05.083Z,41.70
2018-07-01T22:52:33.744Z,41.30
2018-07-01T22:55:02.746Z,41.20
2018-07-01T22:57:31.358Z,41.00
2018-07-01T22:59:59.975Z,41.00
2018-07-01T23:05:11.317Z,41.20
2018-07-01T23:07:40.110Z,40.50
2018-07-01T23:10:08.681Z,39.90
2018-07-01T23:12:37.255Z,40.20
2018-07-01T23:15:05.907Z,40.00
2018-07-01T23:17:34.752Z,40.20
2018-07-01T23:20:03.316Z,40.10
2018-07-01T23:22:31.922Z,40.10
2018-07-01T23:25:00.472Z,40.10
2018-07-01T23:27:29.068Z,40.10
2018-07-01T23:29:57.810Z,40.30
2018-07-01T23:32:26.826Z,40.70
2018-07-01T23:34:55.765Z,40.60
2018-07-01T23:37:24.419Z,40.40
2018-07-01T23:39:53.004Z,40.60
2018-07-01T23:42:21.947Z,40.50
2018-07-01T23:44:51.024Z,40.20
2018-07-01T23:47:20.317Z,40.50
2018-07-01T23:49:48.875Z,40.40
2018-07-01T23:52:18.079Z,40.10
2018-07-01T23:54:46.705Z,40.10
2018-07-01T23:57:15.291Z,39.70
2018-07-01T23:59:43.955Z,39.70
